Terminal Aerodrome Forecast
Issued by NWS Paducah, KY

Home | Current Version | Previous Version | Graphics & Text | Print | Product List | Glossary On
Versions: 1 2 3 4 5 6 7 8 9 10 11 12 13 14 15
269
FTUS43 KPAH 250520
TAFEVV
TAF
KEVV 250520Z 2506/2606 15006KT P6SM SCT035 BKN150 WS020/19040KT
     FM251100 16010KT P6SM BKN035 WS020/19040KT
     FM251500 17013G21KT P6SM -SHRA BKN035
     FM251700 17013G21KT P6SM -SHRA BKN040
     FM260300 15006KT P6SM BKN050=

USA.gov is the U.S. government's official web portal to all federal, state and local government web resources and services.